sensor_id;sensor_type;location;lat;lon;timestamp;pressure;altitude;pressure_sealevel;temperature;humidity
11190;BME280;5651;50.926;4.718;2022-08-14T00:01:20;100937.41;;;18.08;54.19
11190;BME280;5651;50.926;4.718;2022-08-14T00:03:45;100929.69;;;18.01;53.96
11190;BME280;5651;50.926;4.718;2022-08-14T00:06:11;100921.91;;;17.98;54.00
11190;BME280;5651;50.926;4.718;2022-08-14T00:08:37;100918.44;;;17.96;57.14
11190;BME280;5651;50.926;4.718;2022-08-14T00:11:03;100925.69;;;17.89;53.82
11190;BME280;5651;50.926;4.718;2022-08-14T00:13:29;100916.22;;;17.84;53.07
11190;BME280;5651;50.926;4.718;2022-08-14T00:15:56;100911.00;;;17.82;55.51
11190;BME280;5651;50.926;4.718;2022-08-14T00:18:25;100912.88;;;17.79;56.07
11190;BME280;5651;50.926;4.718;2022-08-14T00:20:51;100916.50;;;17.74;56.46
11190;BME280;5651;50.926;4.718;2022-08-14T00:23:18;100911.38;;;17.70;54.76
11190;BME280;5651;50.926;4.718;2022-08-14T00:25:47;100908.00;;;17.66;55.03
11190;BME280;5651;50.926;4.718;2022-08-14T00:28:14;100908.16;;;17.62;56.00
11190;BME280;5651;50.926;4.718;2022-08-14T00:30:40;100910.03;;;17.58;55.01
11190;BME280;5651;50.926;4.718;2022-08-14T00:33:06;100911.00;;;17.55;56.22
11190;BME280;5651;50.926;4.718;2022-08-14T00:35:33;100902.31;;;17.52;55.68
11190;BME280;5651;50.926;4.718;2022-08-14T00:37:59;100907.69;;;17.49;53.23
11190;BME280;5651;50.926;4.718;2022-08-14T00:40:25;100903.38;;;17.46;55.20
11190;BME280;5651;50.926;4.718;2022-08-14T00:42:51;100904.34;;;17.43;54.68
11190;BME280;5651;50.926;4.718;2022-08-14T00:45:17;100900.03;;;17.41;54.99
11190;BME280;5651;50.926;4.718;2022-08-14T00:47:45;100911.59;;;17.37;53.96
11190;BME280;5651;50.926;4.718;2022-08-14T00:50:16;100912.53;;;17.34;53.41
11190;BME280;5651;50.926;4.718;2022-08-14T00:52:45;100904.63;;;17.34;57.84
11190;BME280;5651;50.926;4.718;2022-08-14T00:55:11;100899.50;;;17.30;53.90
11190;BME280;5651;50.926;4.718;2022-08-14T00:57:37;100906.63;;;17.27;53.33
11190;BME280;5651;50.926;4.718;2022-08-14T01:00:08;100899.69;;;17.25;54.39
11190;BME280;5651;50.926;4.718;2022-08-14T01:02:35;100900.59;;;17.24;55.51
11190;BME280;5651;50.926;4.718;2022-08-14T01:05:02;100896.31;;;17.20;56.64
11190;BME280;5651;50.926;4.718;2022-08-14T01:07:32;100897.34;;;17.16;56.11
11190;BME280;5651;50.926;4.718;2022-08-14T01:10:01;100902.75;;;17.11;54.95
11190;BME280;5651;50.926;4.718;2022-08-14T01:12:28;100901.06;;;17.08;55.66
11190;BME280;5651;50.926;4.718;2022-08-14T01:14:58;100890.63;;;17.05;56.59
11190;BME280;5651;50.926;4.718;2022-08-14T01:17:27;100898.63;;;17.02;55.27
11190;BME280;5651;50.926;4.718;2022-08-14T01:20:12;100887.34;;;16.99;56.59
11190;BME280;5651;50.926;4.718;2022-08-14T01:22:57;100890.94;;;16.94;56.80
11190;BME280;5651;50.926;4.718;2022-08-14T01:25:23;100882.25;;;16.91;56.87
11190;BME280;5651;50.926;4.718;2022-08-14T01:27:49;100879.75;;;16.86;56.73
11190;BME280;5651;50.926;4.718;2022-08-14T01:30:15;100874.59;;;16.83;57.28
11190;BME280;5651;50.926;4.718;2022-08-14T01:32:40;100875.59;;;16.79;55.40
11190;BME280;5651;50.926;4.718;2022-08-14T01:35:06;100871.34;;;16.75;55.86
11190;BME280;5651;50.926;4.718;2022-08-14T01:37:33;100868.72;;;16.73;55.16
11190;BME280;5651;50.926;4.718;2022-08-14T01:39:58;100867.94;;;16.71;57.54
11190;BME280;5651;50.926;4.718;2022-08-14T01:42:26;100871.53;;;16.69;58.58
11190;BME280;5651;50.926;4.718;2022-08-14T01:44:54;100864.63;;;16.64;58.18
11190;BME280;5651;50.926;4.718;2022-08-14T01:47:22;100868.19;;;16.62;57.20
11190;BME280;5651;50.926;4.718;2022-08-14T01:49:49;100860.44;;;16.57;57.10
11190;BME280;5651;50.926;4.718;2022-08-14T01:52:16;100860.50;;;16.56;58.82
11190;BME280;5651;50.926;4.718;2022-08-14T01:54:42;100857.03;;;16.54;59.82
11190;BME280;5651;50.926;4.718;2022-08-14T01:57:08;100863.25;;;16.51;59.45
11190;BME280;5651;50.926;4.718;2022-08-14T01:59:36;100861.59;;;16.48;58.97
11190;BME280;5651;50.926;4.718;2022-08-14T02:02:07;100861.72;;;16.44;59.44
11190;BME280;5651;50.926;4.718;2022-08-14T02:04:42;100856.53;;;16.41;58.16
11190;BME280;5651;50.926;4.718;2022-08-14T02:07:08;100851.38;;;16.38;57.52
11190;BME280;5651;50.926;4.718;2022-08-14T02:09:34;100848.78;;;16.36;58.47
11190;BME280;5651;50.926;4.718;2022-08-14T02:12:07;100855.88;;;16.32;57.99
11190;BME280;5651;50.926;4.718;2022-08-14T02:14:33;100842.84;;;16.29;57.76
11190;BME280;5651;50.926;4.718;2022-08-14T02:16:59;100846.44;;;16.27;57.56
11190;BME280;5651;50.926;4.718;2022-08-14T02:19:28;100839.47;;;16.24;57.47
11190;BME280;5651;50.926;4.718;2022-08-14T02:21:57;100834.31;;;16.21;57.12
11190;BME280;5651;50.926;4.718;2022-08-14T02:24:26;100833.47;;;16.19;58.33
11190;BME280;5651;50.926;4.718;2022-08-14T02:26:55;100833.53;;;16.18;58.01
11190;BME280;5651;50.926;4.718;2022-08-14T02:29:23;100833.59;;;16.14;58.72
11190;BME280;5651;50.926;4.718;2022-08-14T02:31:56;100834.50;;;16.13;59.69
11190;BME280;5651;50.926;4.718;2022-08-14T02:34:25;100837.19;;;16.12;60.74
11190;BME280;5651;50.926;4.718;2022-08-14T02:37:12;100836.47;;;16.07;61.94
11190;BME280;5651;50.926;4.718;2022-08-14T02:39:41;100829.59;;;16.01;60.04
11190;BME280;5651;50.926;4.718;2022-08-14T02:42:10;100832.31;;;15.98;60.73
11190;BME280;5651;50.926;4.718;2022-08-14T02:44:43;100833.31;;;15.94;60.33
11190;BME280;5651;50.926;4.718;2022-08-14T02:47:09;100836.84;;;15.93;60.75
11190;BME280;5651;50.926;4.718;2022-08-14T02:49:36;100835.22;;;15.89;60.22
11190;BME280;5651;50.926;4.718;2022-08-14T02:52:04;100833.53;;;15.84;61.03
11190;BME280;5651;50.926;4.718;2022-08-14T02:54:30;100835.31;;;15.82;61.80
11190;BME280;5651;50.926;4.718;2022-08-14T02:56:58;100832.78;;;15.79;61.17
11190;BME280;5651;50.926;4.718;2022-08-14T02:59:27;100838.09;;;15.76;60.87
11190;BME280;5651;50.926;4.718;2022-08-14T03:01:54;100836.47;;;15.72;60.68
11190;BME280;5651;50.926;4.718;2022-08-14T03:04:22;100839.22;;;15.67;60.37
11190;BME280;5651;50.926;4.718;2022-08-14T03:06:49;100827.88;;;15.67;61.92
11190;BME280;5651;50.926;4.718;2022-08-14T03:09:15;100820.09;;;15.62;59.89
11190;BME280;5651;50.926;4.718;2022-08-14T03:11:41;100829.72;;;15.62;58.47
11190;BME280;5651;50.926;4.718;2022-08-14T03:14:09;100821.84;;;15.62;60.47
11190;BME280;5651;50.926;4.718;2022-08-14T03:16:38;100826.28;;;15.60;60.92
11190;BME280;5651;50.926;4.718;2022-08-14T03:19:06;100825.47;;;15.58;58.92
11190;BME280;5651;50.926;4.718;2022-08-14T03:21:33;100824.63;;;15.56;59.51
11190;BME280;5651;50.926;4.718;2022-08-14T03:23:59;100822.06;;;15.54;59.94
11190;BME280;5651;50.926;4.718;2022-08-14T03:26:25;100825.59;;;15.53;61.11
11190;BME280;5651;50.926;4.718;2022-08-14T03:28:52;100823.91;;;15.49;60.55
11190;BME280;5651;50.926;4.718;2022-08-14T03:31:19;100824.91;;;15.45;58.26
11190;BME280;5651;50.926;4.718;2022-08-14T03:33:47;100823.13;;;15.45;60.43
11190;BME280;5651;50.926;4.718;2022-08-14T03:36:14;100823.13;;;15.45;61.02
11190;BME280;5651;50.926;4.718;2022-08-14T03:38:42;100821.44;;;15.44;59.75
11190;BME280;5651;50.926;4.718;2022-08-14T03:41:09;100818.81;;;15.44;61.69
11190;BME280;5651;50.926;4.718;2022-08-14T03:43:51;100814.47;;;15.42;61.86
11190;BME280;5651;50.926;4.718;2022-08-14T03:46:18;100816.31;;;15.38;60.63
11190;BME280;5651;50.926;4.718;2022-08-14T03:48:46;100817.25;;;15.35;61.71
11190;BME280;5651;50.926;4.718;2022-08-14T03:51:12;100809.47;;;15.32;61.57
11190;BME280;5651;50.926;4.718;2022-08-14T03:53:42;100802.41;;;15.34;60.95
11190;BME280;5651;50.926;4.718;2022-08-14T03:56:14;100802.41;;;15.34;61.17
11190;BME280;5651;50.926;4.718;2022-08-14T03:58:47;100793.69;;;15.34;60.99
11190;BME280;5651;50.926;4.718;2022-08-14T04:01:16;100791.00;;;15.35;61.77
11190;BME280;5651;50.926;4.718;2022-08-14T04:03:45;100786.69;;;15.33;61.92
11190;BME280;5651;50.926;4.718;2022-08-14T04:06:11;100777.16;;;15.30;61.46
11190;BME280;5651;50.926;4.718;2022-08-14T04:08:38;100785.97;;;15.28;61.68
11190;BME280;5651;50.926;4.718;2022-08-14T04:11:05;100786.94;;;15.24;60.59
11190;BME280;5651;50.926;4.718;2022-08-14T04:13:34;100778.25;;;15.21;59.60
11190;BME280;5651;50.926;4.718;2022-08-14T04:16:05;100779.22;;;15.17;60.22
11190;BME280;5651;50.926;4.718;2022-08-14T04:18:32;100769.59;;;15.16;61.76
11190;BME280;5651;50.926;4.718;2022-08-14T04:20:58;100772.31;;;15.13;61.58
11190;BME280;5651;50.926;4.718;2022-08-14T04:23:24;100764.56;;;15.09;58.85
11190;BME280;5651;50.926;4.718;2022-08-14T04:25:50;100760.16;;;15.09;61.23
11190;BME280;5651;50.926;4.718;2022-08-14T04:28:20;100755.84;;;15.07;60.74
11190;BME280;5651;50.926;4.718;2022-08-14T04:30:46;100752.38;;;15.06;60.95
11190;BME280;5651;50.926;4.718;2022-08-14T04:33:12;100754.19;;;15.04;61.89
11190;BME280;5651;50.926;4.718;2022-08-14T04:35:39;100748.09;;;15.02;60.15
11190;BME280;5651;50.926;4.718;2022-08-14T04:38:06;100755.13;;;15.00;59.35
11190;BME280;5651;50.926;4.718;2022-08-14T04:40:51;100759.38;;;15.05;66.97
11190;BME280;5651;50.926;4.718;2022-08-14T04:43:36;100760.22;;;15.08;61.02
11190;BME280;5651;50.926;4.718;2022-08-14T04:46:04;100769.66;;;15.15;66.07
11190;BME280;5651;50.926;4.718;2022-08-14T04:48:30;100767.03;;;15.15;59.99
11190;BME280;5651;50.926;4.718;2022-08-14T04:50:56;100764.28;;;15.19;61.42
11190;BME280;5651;50.926;4.718;2022-08-14T04:53:24;100764.13;;;15.26;60.47
11190;BME280;5651;50.926;4.718;2022-08-14T04:55:51;100773.63;;;15.31;64.61
11190;BME280;5651;50.926;4.718;2022-08-14T04:58:20;100765.66;;;15.34;62.00
11190;BME280;5651;50.926;4.718;2022-08-14T05:00:48;100763.03;;;15.34;59.24
11190;BME280;5651;50.926;4.718;2022-08-14T05:03:26;100768.03;;;15.44;61.77
11190;BME280;5651;50.926;4.718;2022-08-14T05:05:54;100779.28;;;15.49;63.50
11190;BME280;5651;50.926;4.718;2022-08-14T05:08:21;100772.22;;;15.51;67.31
11190;BME280;5651;50.926;4.718;2022-08-14T05:10:50;100765.19;;;15.53;61.83
11190;BME280;5651;50.926;4.718;2022-08-14T05:13:21;100767.69;;;15.58;62.94
11190;BME280;5651;50.926;4.718;2022-08-14T05:15:48;100772.00;;;15.60;60.16
11190;BME280;5651;50.926;4.718;2022-08-14T05:18:19;100761.44;;;15.62;59.98
11190;BME280;5651;50.926;4.718;2022-08-14T05:20:50;100770.97;;;15.66;59.88
11190;BME280;5651;50.926;4.718;2022-08-14T05:23:18;100769.06;;;15.71;62.35
11190;BME280;5651;50.926;4.718;2022-08-14T05:25:45;100756.75;;;15.73;62.10
11190;BME280;5651;50.926;4.718;2022-08-14T05:28:20;100762.81;;;15.75;62.89
11190;BME280;5651;50.926;4.718;2022-08-14T05:30:50;100764.53;;;15.78;61.70
11190;BME280;5651;50.926;4.718;2022-08-14T05:33:18;100766.16;;;15.82;62.53
11190;BME280;5651;50.926;4.718;2022-08-14T05:35:46;100765.22;;;15.84;61.51
11190;BME280;5651;50.926;4.718;2022-08-14T05:38:15;100761.66;;;15.87;61.26
11190;BME280;5651;50.926;4.718;2022-08-14T05:40:45;100759.00;;;15.89;59.64
11190;BME280;5651;50.926;4.718;2022-08-14T05:43:12;100756.25;;;15.93;58.28
11190;BME280;5651;50.926;4.718;2022-08-14T05:45:38;100755.19;;;15.99;58.19
11190;BME280;5651;50.926;4.718;2022-08-14T05:48:05;100755.00;;;16.05;57.21
11190;BME280;5651;50.926;4.718;2022-08-14T05:50:33;100747.75;;;16.13;56.77
11190;BME280;5651;50.926;4.718;2022-08-14T05:53:00;100749.34;;;16.19;56.74
11190;BME280;5651;50.926;4.718;2022-08-14T05:55:26;100750.03;;;16.26;56.56
11190;BME280;5651;50.926;4.718;2022-08-14T05:57:57;100751.53;;;16.35;56.05
11190;BME280;5651;50.926;4.718;2022-08-14T06:00:27;100734.66;;;16.42;55.87
11190;BME280;5651;50.926;4.718;2022-08-14T06:02:54;100740.47;;;16.52;55.45
11190;BME280;5651;50.926;4.718;2022-08-14T06:05:24;100738.53;;;16.58;54.60
11190;BME280;5651;50.926;4.718;2022-08-14T06:07:50;100744.34;;;16.68;55.38
11190;BME280;5651;50.926;4.718;2022-08-14T06:10:16;100742.34;;;16.76;53.91
11190;BME280;5651;50.926;4.718;2022-08-14T06:12:42;100730.69;;;16.84;53.24
11190;BME280;5651;50.926;4.718;2022-08-14T06:15:09;100734.72;;;16.95;53.45
11190;BME280;5651;50.926;4.718;2022-08-14T06:17:49;100725.56;;;17.07;52.85
11190;BME280;5651;50.926;4.718;2022-08-14T06:20:15;100731.28;;;17.20;52.07
11190;BME280;5651;50.926;4.718;2022-08-14T06:22:41;100744.09;;;17.31;51.87
11190;BME280;5651;50.926;4.718;2022-08-14T06:25:09;100734.94;;;17.41;51.35
11190;BME280;5651;50.926;4.718;2022-08-14T06:27:43;100737.91;;;17.57;51.21
11190;BME280;5651;50.926;4.718;2022-08-14T06:30:12;100745.34;;;17.70;50.99
11190;BME280;5651;50.926;4.718;2022-08-14T06:32:39;100743.13;;;17.83;50.49
11190;BME280;5651;50.926;4.718;2022-08-14T06:35:06;100745.34;;;17.95;50.14
11190;BME280;5651;50.926;4.718;2022-08-14T06:37:39;100747.41;;;18.11;49.21
11190;BME280;5651;50.926;4.718;2022-08-14T06:40:06;100730.09;;;18.27;49.71
11190;BME280;5651;50.926;4.718;2022-08-14T06:42:32;100728.75;;;18.39;49.25
11190;BME280;5651;50.926;4.718;2022-08-14T06:44:58;100723.72;;;18.55;49.01
11190;BME280;5651;50.926;4.718;2022-08-14T06:47:26;100730.09;;;18.72;50.34
11190;BME280;5651;50.926;4.718;2022-08-14T06:49:51;100729.63;;;18.84;49.87
11190;BME280;5651;50.926;4.718;2022-08-14T06:52:17;100722.84;;;18.99;49.61
11190;BME280;5651;50.926;4.718;2022-08-14T06:54:43;100725.69;;;19.15;49.80
11190;BME280;5651;50.926;4.718;2022-08-14T06:57:09;100727.69;;;19.30;49.10
11190;BME280;5651;50.926;4.718;2022-08-14T06:59:35;100722.59;;;19.46;50.08
11190;BME280;5651;50.926;4.718;2022-08-14T07:02:01;100720.13;;;19.62;48.89
11190;BME280;5651;50.926;4.718;2022-08-14T07:04:45;100711.25;;;19.84;48.55
11190;BME280;5651;50.926;4.718;2022-08-14T07:07:37;100718.19;;;20.06;48.82
11190;BME280;5651;50.926;4.718;2022-08-14T07:10:04;100713.91;;;20.22;48.77
11190;BME280;5651;50.926;4.718;2022-08-14T07:12:30;100708.69;;;20.40;48.44
11190;BME280;5651;50.926;4.718;2022-08-14T07:14:56;100706.06;;;20.57;49.20
11190;BME280;5651;50.926;4.718;2022-08-14T07:17:22;100708.75;;;20.75;49.71
11190;BME280;5651;50.926;4.718;2022-08-14T07:19:47;100702.56;;;20.94;49.56
11190;BME280;5651;50.926;4.718;2022-08-14T07:22:13;100694.59;;;21.11;48.88
11190;BME280;5651;50.926;4.718;2022-08-14T07:24:39;100692.53;;;21.34;48.43
11190;BME280;5651;50.926;4.718;2022-08-14T07:27:05;100689.56;;;21.58;48.71
11190;BME280;5651;50.926;4.718;2022-08-14T07:29:30;100682.09;;;21.82;49.86
11190;BME280;5651;50.926;4.718;2022-08-14T07:31:56;100679.00;;;22.06;48.88
11190;BME280;5651;50.926;4.718;2022-08-14T07:34:23;100675.66;;;22.34;49.76
11190;BME280;5651;50.926;4.718;2022-08-14T07:36:49;100674.03;;;22.63;51.50
11190;BME280;5651;50.926;4.718;2022-08-14T07:39:14;100671.91;;;22.85;51.30
11190;BME280;5651;50.926;4.718;2022-08-14T07:41:40;100683.31;;;23.01;50.92
11190;BME280;5651;50.926;4.718;2022-08-14T07:44:08;100678.41;;;23.09;52.07
11190;BME280;5651;50.926;4.718;2022-08-14T07:46:35;100683.88;;;23.22;51.99
11190;BME280;5651;50.926;4.718;2022-08-14T07:49:02;100678.66;;;23.35;53.05
11190;BME280;5651;50.926;4.718;2022-08-14T07:51:29;100671.34;;;23.53;50.54
11190;BME280;5651;50.926;4.718;2022-08-14T07:53:56;100659.38;;;23.75;49.62
11190;BME280;5651;50.926;4.718;2022-08-14T07:56:22;100663.72;;;23.90;49.17
11190;BME280;5651;50.926;4.718;2022-08-14T07:58:48;100667.78;;;24.11;49.83
11190;BME280;5651;50.926;4.718;2022-08-14T08:01:15;100664.13;;;24.26;48.65
11190;BME280;5651;50.926;4.718;2022-08-14T08:03:45;100668.03;;;24.48;48.49
11190;BME280;5651;50.926;4.718;2022-08-14T08:06:12;100672.16;;;24.66;48.58
11190;BME280;5651;50.926;4.718;2022-08-14T08:08:39;100663.81;;;24.98;48.05
11190;BME280;5651;50.926;4.718;2022-08-14T08:11:06;100659.56;;;25.22;47.89
11190;BME280;5651;50.926;4.718;2022-08-14T08:13:33;100663.06;;;25.35;48.74
11190;BME280;5651;50.926;4.718;2022-08-14T08:16:01;100664.81;;;25.49;48.27
11190;BME280;5651;50.926;4.718;2022-08-14T08:18:31;100665.00;;;25.72;47.67
11190;BME280;5651;50.926;4.718;2022-08-14T08:20:57;100658.75;;;25.84;48.11
11190;BME280;5651;50.926;4.718;2022-08-14T08:23:24;100661.47;;;26.08;46.87
11190;BME280;5651;50.926;4.718;2022-08-14T08:25:52;100656.25;;;26.31;46.57
11190;BME280;5651;50.926;4.718;2022-08-14T08:30:52;100659.56;;;26.70;46.78
11190;BME280;5651;50.926;4.718;2022-08-14T08:33:20;100648.00;;;26.94;46.79
11190;BME280;5651;50.926;4.718;2022-08-14T08:35:46;100655.34;;;27.03;46.91
11190;BME280;5651;50.926;4.718;2022-08-14T08:38:14;100650.09;;;27.25;47.25
11190;BME280;5651;50.926;4.718;2022-08-14T08:40:47;100654.53;;;27.48;47.01
11190;BME280;5651;50.926;4.718;2022-08-14T08:43:21;100645.03;;;27.67;46.69
11190;BME280;5651;50.926;4.718;2022-08-14T08:46:02;100641.34;;;27.91;44.99
11190;BME280;5651;50.926;4.718;2022-08-14T08:51:19;100645.66;;;28.26;44.27
11190;BME280;5651;50.926;4.718;2022-08-14T08:54:04;100647.50;;;28.46;44.62
11190;BME280;5651;50.926;4.718;2022-08-14T08:56:48;100633.59;;;28.85;43.12
11190;BME280;5651;50.926;4.718;2022-08-14T08:59:30;100642.38;;;28.97;40.71
11190;BME280;5651;50.926;4.718;2022-08-14T09:02:08;100644.59;;;29.13;40.87
11190;BME280;5651;50.926;4.718;2022-08-14T09:04:39;100635.84;;;29.32;40.12
11190;BME280;5651;50.926;4.718;2022-08-14T09:07:07;100629.72;;;29.61;41.37
11190;BME280;5651;50.926;4.718;2022-08-14T09:09:33;100624.50;;;29.69;40.25
11190;BME280;5651;50.926;4.718;2022-08-14T09:12:01;100623.16;;;29.95;40.69
11190;BME280;5651;50.926;4.718;2022-08-14T09:14:29;100626.44;;;29.98;40.53
11190;BME280;5651;50.926;4.718;2022-08-14T09:16:56;100618.38;;;30.18;40.86
11190;BME280;5651;50.926;4.718;2022-08-14T09:19:24;100624.59;;;30.28;40.16
11190;BME280;5651;50.926;4.718;2022-08-14T09:21:50;100623.75;;;30.18;39.50
11190;BME280;5651;50.926;4.718;2022-08-14T09:24:18;100621.34;;;30.34;39.35
11190;BME280;5651;50.926;4.718;2022-08-14T09:26:44;100616.13;;;30.53;39.32
11190;BME280;5651;50.926;4.718;2022-08-14T09:29:11;100618.97;;;30.51;38.78
11190;BME280;5651;50.926;4.718;2022-08-14T09:31:41;100611.72;;;30.71;39.33
11190;BME280;5651;50.926;4.718;2022-08-14T09:42:47;100608.13;;;30.90;38.90
11190;BME280;5651;50.926;4.718;2022-08-14T09:45:15;100598.72;;;30.47;37.73
11190;BME280;5651;50.926;4.718;2022-08-14T09:47:53;100605.34;;;30.72;37.97
11190;BME280;5651;50.926;4.718;2022-08-14T09:50:21;100600.22;;;30.89;38.14
11190;BME280;5651;50.926;4.718;2022-08-14T09:52:52;100597.19;;;31.02;39.17
11190;BME280;5651;50.926;4.718;2022-08-14T09:55:19;100593.22;;;31.06;39.15
11190;BME280;5651;50.926;4.718;2022-08-14T09:57:47;100593.50;;;31.03;39.03
11190;BME280;5651;50.926;4.718;2022-08-14T10:00:14;100594.19;;;31.05;38.00
11190;BME280;5651;50.926;4.718;2022-08-14T10:02:52;100583.53;;;30.75;36.54
11190;BME280;5651;50.926;4.718;2022-08-14T10:05:32;100580.72;;;30.77;36.89
11190;BME280;5651;50.926;4.718;2022-08-14T10:07:58;100581.66;;;30.86;37.96
11190;BME280;5651;50.926;4.718;2022-08-14T10:10:35;100590.28;;;30.89;36.30
11190;BME280;5651;50.926;4.718;2022-08-14T10:13:05;100591.28;;;30.88;37.12
11190;BME280;5651;50.926;4.718;2022-08-14T10:15:32;100593.38;;;30.94;36.01
11190;BME280;5651;50.926;4.718;2022-08-14T10:18:10;100597.72;;;31.05;36.94
11190;BME280;5651;50.926;4.718;2022-08-14T10:20:39;100594.91;;;31.17;37.31
11190;BME280;5651;50.926;4.718;2022-08-14T10:23:17;100586.94;;;30.67;36.42
11190;BME280;5651;50.926;4.718;2022-08-14T10:25:48;100581.25;;;30.80;35.38
11190;BME280;5651;50.926;4.718;2022-08-14T10:28:20;100578.25;;;30.83;36.55
11190;BME280;5651;50.926;4.718;2022-08-14T10:30:48;100580.22;;;30.91;37.30
11190;BME280;5651;50.926;4.718;2022-08-14T10:33:30;100574.38;;;31.06;37.41
11190;BME280;5651;50.926;4.718;2022-08-14T10:35:57;100567.81;;;31.18;37.36
11190;BME280;5651;50.926;4.718;2022-08-14T10:38:29;100557.59;;;31.22;37.48
11190;BME280;5651;50.926;4.718;2022-08-14T10:41:08;100551.50;;;31.20;35.96
11190;BME280;5651;50.926;4.718;2022-08-14T10:43:34;100538.97;;;31.56;36.84
11190;BME280;5651;50.926;4.718;2022-08-14T10:46:00;100534.88;;;31.80;34.64
11190;BME280;5651;50.926;4.718;2022-08-14T10:48:27;100531.56;;;31.86;35.25
11190;BME280;5651;50.926;4.718;2022-08-14T10:50:53;100538.19;;;31.92;33.19
11190;BME280;5651;50.926;4.718;2022-08-14T10:53:33;100536.63;;;32.26;34.03
11190;BME280;5651;50.926;4.718;2022-08-14T10:56:08;100535.63;;;32.27;32.43
11190;BME280;5651;50.926;4.718;2022-08-14T10:58:34;100529.19;;;32.46;33.31
11190;BME280;5651;50.926;4.718;2022-08-14T11:01:01;100527.78;;;32.68;34.06
11190;BME280;5651;50.926;4.718;2022-08-14T11:03:37;100526.47;;;32.98;32.77
11190;BME280;5651;50.926;4.718;2022-08-14T11:06:24;100517.56;;;33.14;32.81
11190;BME280;5651;50.926;4.718;2022-08-14T11:08:49;100501.75;;;33.20;31.42
11190;BME280;5651;50.926;4.718;2022-08-14T11:11:17;100503.03;;;33.50;29.98
11190;BME280;5651;50.926;4.718;2022-08-14T11:13:44;100496.94;;;33.48;31.16
11190;BME280;5651;50.926;4.718;2022-08-14T11:16:14;100497.97;;;33.12;29.36
11190;BME280;5651;50.926;4.718;2022-08-14T11:18:45;100493.13;;;33.24;29.75
11190;BME280;5651;50.926;4.718;2022-08-14T11:21:15;100482.59;;;33.56;29.73
11190;BME280;5651;50.926;4.718;2022-08-14T11:23:44;100484.97;;;33.67;30.39
11190;BME280;5651;50.926;4.718;2022-08-14T11:26:12;100482.91;;;33.53;29.50
11190;BME280;5651;50.926;4.718;2022-08-14T11:28:40;100485.63;;;32.93;28.74
11190;BME280;5651;50.926;4.718;2022-08-14T11:31:09;100488.09;;;32.52;29.39
11190;BME280;5651;50.926;4.718;2022-08-14T11:33:35;100483.09;;;32.65;29.17
11190;BME280;5651;50.926;4.718;2022-08-14T11:36:05;100477.13;;;32.53;28.56
11190;BME280;5651;50.926;4.718;2022-08-14T11:38:39;100478.41;;;33.10;30.39
11190;BME280;5651;50.926;4.718;2022-08-14T11:41:05;100476.00;;;33.50;29.60
11190;BME280;5651;50.926;4.718;2022-08-14T11:43:40;100467.41;;;33.88;27.74
11190;BME280;5651;50.926;4.718;2022-08-14T11:46:06;100464.56;;;34.14;28.16
11190;BME280;5651;50.926;4.718;2022-08-14T11:48:32;100473.97;;;34.35;27.58
11190;BME280;5651;50.926;4.718;2022-08-14T11:51:17;100462.78;;;34.46;26.03
11190;BME280;5651;50.926;4.718;2022-08-14T11:53:56;100458.31;;;34.70;26.54
11190;BME280;5651;50.926;4.718;2022-08-14T11:56:33;100451.00;;;34.79;25.82
11190;BME280;5651;50.926;4.718;2022-08-14T11:58:59;100453.88;;;34.21;25.75
11190;BME280;5651;50.926;4.718;2022-08-14T12:01:26;100453.59;;;34.72;27.26
11190;BME280;5651;50.926;4.718;2022-08-14T12:03:53;100445.69;;;34.62;25.50
11190;BME280;5651;50.926;4.718;2022-08-14T12:06:21;100448.81;;;35.14;26.33
11190;BME280;5651;50.926;4.718;2022-08-14T12:08:49;100445.31;;;35.05;26.57
11190;BME280;5651;50.926;4.718;2022-08-14T12:11:18;100437.28;;;35.43;26.38
11190;BME280;5651;50.926;4.718;2022-08-14T12:13:45;100430.13;;;35.50;25.27
11190;BME280;5651;50.926;4.718;2022-08-14T12:16:13;100434.25;;;35.84;24.66
11190;BME280;5651;50.926;4.718;2022-08-14T12:18:43;100425.81;;;36.03;24.91
11190;BME280;5651;50.926;4.718;2022-08-14T12:21:11;100435.44;;;36.05;22.89
11190;BME280;5651;50.926;4.718;2022-08-14T12:23:38;100426.66;;;35.65;23.79
11190;BME280;5651;50.926;4.718;2022-08-14T12:26:06;100428.28;;;35.89;24.33
11190;BME280;5651;50.926;4.718;2022-08-14T12:28:32;100427.38;;;35.97;22.76
11190;BME280;5651;50.926;4.718;2022-08-14T12:30:58;100430.31;;;36.25;23.52
11190;BME280;5651;50.926;4.718;2022-08-14T12:33:29;100423.50;;;36.44;23.88
11190;BME280;5651;50.926;4.718;2022-08-14T12:35:58;100419.63;;;36.69;23.40
11190;BME280;5651;50.926;4.718;2022-08-14T12:38:54;100428.34;;;36.79;22.68
11190;BME280;5651;50.926;4.718;2022-08-14T12:41:22;100422.97;;;37.01;23.65
11190;BME280;5651;50.926;4.718;2022-08-14T12:43:51;100426.00;;;37.49;23.33
11190;BME280;5651;50.926;4.718;2022-08-14T12:48:48;100408.94;;;37.84;23.00
11190;BME280;5651;50.926;4.718;2022-08-14T12:51:19;100409.63;;;38.28;22.60
11190;BME280;5651;50.926;4.718;2022-08-14T12:53:47;100411.75;;;38.74;22.05
11190;BME280;5651;50.926;4.718;2022-08-14T12:56:20;100404.22;;;38.76;21.39
11190;BME280;5651;50.926;4.718;2022-08-14T12:58:57;100408.59;;;38.29;21.76
11190;BME280;5651;50.926;4.718;2022-08-14T13:01:25;100417.97;;;38.55;22.08
11190;BME280;5651;50.926;4.718;2022-08-14T13:04:06;100416.09;;;38.20;21.39
11190;BME280;5651;50.926;4.718;2022-08-14T13:06:34;100419.94;;;38.32;21.48
11190;BME280;5651;50.926;4.718;2022-08-14T13:09:04;100410.34;;;38.36;22.23
11190;BME280;5651;50.926;4.718;2022-08-14T13:11:51;100399.34;;;38.65;22.43
11190;BME280;5651;50.926;4.718;2022-08-14T13:14:21;100394.47;;;39.09;20.94
11190;BME280;5651;50.926;4.718;2022-08-14T13:16:54;100393.00;;;39.20;21.51
11190;BME280;5651;50.926;4.718;2022-08-14T13:19:23;100385.94;;;39.72;22.34
11190;BME280;5651;50.926;4.718;2022-08-14T13:21:51;100386.34;;;39.56;20.65
11190;BME280;5651;50.926;4.718;2022-08-14T13:24:21;100385.03;;;40.26;21.39
11190;BME280;5651;50.926;4.718;2022-08-14T13:26:50;100382.66;;;40.36;20.50